createdAt,value
2018-10-11T00:00:10.025Z,0.00
2018-10-11T00:01:41.598Z,0.00
2018-10-11T00:03:13.334Z,0.00
2018-10-11T00:04:44.745Z,0.00
2018-10-11T00:06:16.420Z,0.00
2018-10-11T00:07:47.891Z,0.00
2018-10-11T00:09:19.464Z,0.00
2018-10-11T00:10:51.038Z,0.00
2018-10-11T00:12:22.614Z,0.00
2018-10-11T00:13:54.187Z,0.00
2018-10-11T00:15:25.758Z,0.00
2018-10-11T00:16:57.334Z,0.00
2018-10-11T00:18:28.906Z,0.00
2018-10-11T00:20:00.566Z,0.00
2018-10-11T00:21:32.052Z,0.00
2018-10-11T00:23:03.625Z,0.00
2018-10-11T00:24:35.299Z,0.00
2018-10-11T00:26:06.773Z,0.00
2018-10-11T00:27:38.349Z,0.00
2018-10-11T00:29:09.917Z,0.00
2018-10-11T00:30:41.542Z,0.00
2018-10-11T00:32:13.066Z,0.00
2018-10-11T00:33:44.637Z,0.00
2018-10-11T00:35:16.211Z,0.00
2018-10-11T00:36:47.785Z,0.00
2018-10-11T00:38:19.359Z,0.00
2018-10-11T00:39:50.933Z,0.00
2018-10-11T00:41:22.521Z,0.00
2018-10-11T00:42:54.183Z,0.00
2018-10-11T00:44:25.657Z,0.00
2018-10-11T00:45:57.226Z,0.00
2018-10-11T00:47:28.799Z,0.00
2018-10-11T00:49:00.373Z,0.00
2018-10-11T00:50:31.946Z,0.00
2018-10-11T00:52:03.519Z,0.00
2018-10-11T00:53:35.094Z,0.00
2018-10-11T00:55:06.665Z,0.00
2018-10-11T00:56:38.239Z,0.00
2018-10-11T00:58:09.814Z,0.00
2018-10-11T00:59:41.386Z,0.00
2018-10-11T01:01:13.060Z,0.00
2018-10-11T01:02:44.533Z,0.00
2018-10-11T01:04:16.106Z,0.00
2018-10-11T01:05:47.984Z,0.00
2018-10-11T01:07:19.253Z,0.00
2018-10-11T01:08:50.826Z,0.00
2018-10-11T01:10:22.407Z,0.00
2018-10-11T01:11:53.978Z,0.00
2018-10-11T01:13:25.547Z,0.00
2018-10-11T01:14:57.120Z,0.00
2018-10-11T01:16:28.693Z,0.00
2018-10-11T01:18:00.267Z,0.00
2018-10-11T01:19:31.940Z,0.00
2018-10-11T01:21:03.943Z,0.00
2018-10-11T01:22:34.988Z,0.00
2018-10-11T01:24:06.562Z,0.00
2018-10-11T01:25:38.146Z,0.00
2018-10-11T01:27:09.708Z,0.00
2018-10-11T01:28:41.281Z,0.00
2018-10-11T01:30:13.001Z,0.00
2018-10-11T01:31:44.428Z,0.00
2018-10-11T01:33:16.002Z,0.00
2018-10-11T01:34:47.575Z,0.00
2018-10-11T01:36:19.150Z,0.00
2018-10-11T01:39:22.397Z,0.00
2018-10-11T01:40:53.870Z,0.00
2018-10-11T01:42:25.448Z,0.00
2018-10-11T01:43:57.018Z,0.00
2018-10-11T01:45:28.591Z,0.00
2018-10-11T01:47:00.166Z,0.00
2018-10-11T01:48:31.739Z,0.00
2018-10-11T01:50:03.316Z,0.00
2018-10-11T01:51:34.887Z,0.00
2018-10-11T01:53:06.463Z,0.00
2018-10-11T01:54:38.032Z,0.00
2018-10-11T01:56:09.606Z,0.00
2018-10-11T01:57:41.423Z,0.00
2018-10-11T01:59:12.752Z,0.00
2018-10-11T02:00:44.333Z,0.00
2018-10-11T02:02:15.900Z,0.00
2018-10-11T02:03:48.002Z,0.00
2018-10-11T02:05:19.047Z,0.00
2018-10-11T02:06:50.623Z,0.00
2018-10-11T02:08:22.193Z,0.00
2018-10-11T02:09:53.767Z,0.00
2018-10-11T02:11:25.338Z,0.00
2018-10-11T02:12:56.913Z,0.00
2018-10-11T02:14:28.493Z,0.00
2018-10-11T02:16:00.161Z,0.00
2018-10-11T02:17:31.634Z,0.00
2018-10-11T02:20:34.780Z,0.00
2018-10-11T02:22:06.352Z,0.00
2018-10-11T02:23:37.931Z,0.00
2018-10-11T02:25:09.540Z,0.00
2018-10-11T02:26:41.072Z,0.00
2018-10-11T02:28:12.744Z,0.00
2018-10-11T02:29:44.219Z,0.00
2018-10-11T02:31:15.815Z,0.00
2018-10-11T02:32:47.367Z,0.00
2018-10-11T02:34:19.339Z,0.00
2018-10-11T02:35:50.820Z,0.00
2018-10-11T02:37:22.085Z,0.00
2018-10-11T02:38:53.657Z,0.00
2018-10-11T02:40:25.231Z,0.00
2018-10-11T02:41:56.804Z,0.00
2018-10-11T02:43:28.379Z,0.00
2018-10-11T02:44:59.951Z,0.00
2018-10-11T02:46:31.525Z,0.00
2018-10-11T02:48:03.097Z,0.00
2018-10-11T02:49:34.670Z,0.00
2018-10-11T02:51:06.243Z,0.00
2018-10-11T02:52:37.917Z,0.00
2018-10-11T02:54:09.390Z,0.00
2018-10-11T02:55:40.963Z,0.00
2018-10-11T02:57:12.537Z,0.00
2018-10-11T02:58:44.110Z,0.00
2018-10-11T03:00:15.683Z,0.00
2018-10-11T03:03:18.830Z,0.00
2018-10-11T03:04:50.404Z,0.00
2018-10-11T03:06:21.981Z,0.00
2018-10-11T03:07:53.550Z,0.00
2018-10-11T03:09:25.127Z,0.00
2018-10-11T03:10:56.797Z,0.00
2018-10-11T03:12:28.273Z,0.00
2018-10-11T03:13:59.843Z,0.00
2018-10-11T03:15:31.418Z,0.00
2018-10-11T03:18:34.619Z,0.00
2018-10-11T03:20:06.136Z,0.00
2018-10-11T03:21:37.712Z,0.00
2018-10-11T03:23:09.282Z,0.00
2018-10-11T03:24:40.858Z,0.00
2018-10-11T03:26:12.432Z,0.00
2018-10-11T03:27:44.003Z,0.00
2018-10-11T03:29:15.575Z,0.00
2018-10-11T03:30:47.350Z,0.00
2018-10-11T03:32:18.729Z,0.00
2018-10-11T03:33:50.318Z,0.00
2018-10-11T03:35:21.870Z,0.00
2018-10-11T03:36:53.543Z,0.00
2018-10-11T03:38:25.016Z,0.00
2018-10-11T03:39:56.591Z,0.00
2018-10-11T03:41:28.163Z,0.00
2018-10-11T03:43:00.044Z,0.00
2018-10-11T03:44:31.311Z,0.00
2018-10-11T03:46:02.885Z,0.00
2018-10-11T03:47:34.457Z,0.00
2018-10-11T03:49:06.131Z,0.00
2018-10-11T03:50:37.603Z,0.00
2018-10-11T03:52:09.177Z,0.00
2018-10-11T03:53:40.750Z,0.00
2018-10-11T03:55:12.324Z,0.00
2018-10-11T03:56:43.897Z,0.00
2018-10-11T03:58:15.471Z,0.00
2018-10-11T03:59:47.044Z,0.00
2018-10-11T04:01:18.619Z,0.00
2018-10-11T04:02:50.190Z,0.00
2018-10-11T04:04:21.764Z,0.00
2018-10-11T04:05:53.866Z,0.00
2018-10-11T04:07:25.047Z,0.00
2018-10-11T04:08:56.482Z,0.00
2018-10-11T04:10:28.058Z,0.00
2018-10-11T04:11:59.629Z,0.00
2018-10-11T04:13:31.209Z,0.00
2018-10-11T04:15:02.775Z,0.00
2018-10-11T04:16:34.349Z,0.00
2018-10-11T04:18:05.921Z,0.00
2018-10-11T04:19:37.494Z,0.00
2018-10-11T04:21:09.067Z,0.00
2018-10-11T04:22:40.641Z,0.00
2018-10-11T04:24:12.214Z,0.00
2018-10-11T04:25:43.886Z,0.00
2018-10-11T04:27:15.365Z,0.00
2018-10-11T04:28:46.936Z,0.00
2018-10-11T04:30:18.506Z,0.00
2018-10-11T04:31:50.179Z,0.00
2018-10-11T04:33:21.651Z,0.00
2018-10-11T04:34:53.224Z,0.00
2018-10-11T04:36:24.797Z,0.00
2018-10-11T04:37:56.671Z,0.00
2018-10-11T04:39:27.942Z,0.00
2018-10-11T04:40:59.517Z,0.00
2018-10-11T04:42:31.089Z,0.00
2018-10-11T04:44:02.863Z,0.00
2018-10-11T04:45:34.236Z,0.00
2018-10-11T04:48:37.381Z,0.00
2018-10-11T04:50:08.953Z,0.00
2018-10-11T04:51:40.527Z,0.00
2018-10-11T04:53:12.100Z,0.00
2018-10-11T04:54:43.674Z,0.00
2018-10-11T04:56:15.247Z,0.00
2018-10-11T04:57:46.818Z,0.00
2018-10-11T04:59:18.392Z,0.00
2018-10-11T05:00:49.966Z,0.00
2018-10-11T05:02:21.638Z,0.00
2018-10-11T05:05:24.722Z,0.00
2018-10-11T05:06:56.258Z,0.00
2018-10-11T05:08:27.830Z,0.00
2018-10-11T05:09:59.406Z,0.00
2018-10-11T05:11:30.976Z,0.00
2018-10-11T05:14:34.123Z,0.00
2018-10-11T05:16:05.696Z,0.00
2018-10-11T05:17:37.273Z,0.00
2018-10-11T05:19:08.843Z,0.00
2018-10-11T05:20:40.517Z,0.00
2018-10-11T05:22:11.990Z,0.00
2018-10-11T05:23:43.562Z,0.00
2018-10-11T05:25:15.137Z,0.00
2018-10-11T05:26:46.710Z,0.00
2018-10-11T05:28:18.282Z,0.00
2018-10-11T05:29:49.863Z,0.00
2018-10-11T05:31:21.429Z,0.00
2018-10-11T05:32:53.105Z,0.00
2018-10-11T05:34:24.576Z,0.00
2018-10-11T05:35:56.149Z,0.00
2018-10-11T05:37:27.724Z,0.00
2018-10-11T05:38:59.924Z,0.00
2018-10-11T05:40:30.868Z,0.00
2018-10-11T05:42:02.445Z,0.00
2018-10-11T05:43:34.015Z,0.00
2018-10-11T05:45:05.791Z,0.00
2018-10-11T05:46:37.163Z,0.00
2018-10-11T05:48:08.737Z,0.00
2018-10-11T05:49:40.353Z,0.00
2018-10-11T05:51:11.883Z,0.00
2018-10-11T05:52:43.456Z,0.00
2018-10-11T05:54:15.029Z,0.00
2018-10-11T05:55:46.602Z,0.00
2018-10-11T05:57:18.277Z,0.00
2018-10-11T05:58:49.750Z,0.00
2018-10-11T06:00:21.324Z,0.00
2018-10-11T06:01:52.904Z,0.00
2018-10-11T06:03:24.573Z,0.00
2018-10-11T06:04:56.043Z,0.00
2018-10-11T06:06:27.617Z,0.00
2018-10-11T06:07:59.194Z,0.00
2018-10-11T06:09:30.764Z,0.00
2018-10-11T06:11:02.337Z,0.00
2018-10-11T06:12:34.083Z,0.00
2018-10-11T06:14:05.487Z,0.00
2018-10-11T06:15:37.157Z,0.00
2018-10-11T06:17:08.629Z,0.00
2018-10-11T06:18:40.205Z,0.00
2018-10-11T06:20:11.777Z,0.00
2018-10-11T06:21:43.350Z,0.00
2018-10-11T06:23:14.924Z,0.00
2018-10-11T06:24:46.524Z,0.00
2018-10-11T06:26:18.069Z,0.00
2018-10-11T06:29:21.216Z,0.00
2018-10-11T06:30:52.789Z,0.00
2018-10-11T06:32:24.361Z,0.00
2018-10-11T06:33:55.936Z,0.00
2018-10-11T06:35:27.710Z,0.00
2018-10-11T06:36:59.387Z,0.00
2018-10-11T06:38:30.655Z,0.00
2018-10-11T06:40:02.230Z,0.00
2018-10-11T06:41:33.818Z,0.00
2018-10-11T06:44:36.949Z,0.00
2018-10-11T06:46:08.522Z,0.00
2018-10-11T06:47:40.095Z,0.00
2018-10-11T06:49:11.673Z,0.00
2018-10-11T06:50:43.283Z,0.00
2018-10-11T06:52:14.815Z,0.00
2018-10-11T06:55:18.767Z,0.00
2018-10-11T06:56:49.537Z,0.00
2018-10-11T06:58:21.108Z,0.00
2018-10-11T06:59:52.681Z,0.00
2018-10-11T07:01:24.355Z,0.00
2018-10-11T07:02:55.827Z,0.00
2018-10-11T07:04:27.400Z,0.00
2018-10-11T07:05:58.973Z,0.00
2018-10-11T07:07:30.546Z,0.00
2018-10-11T07:09:02.120Z,0.00
2018-10-11T07:10:33.700Z,0.00
2018-10-11T07:12:05.266Z,0.00
2018-10-11T07:13:36.939Z,0.00
2018-10-11T07:15:08.413Z,0.00
2018-10-11T07:16:39.986Z,0.00
2018-10-11T07:18:11.559Z,0.00
2018-10-11T07:19:43.132Z,0.00
2018-10-11T07:21:14.705Z,0.00
2018-10-11T07:22:46.277Z,0.00
2018-10-11T07:24:17.851Z,0.00
2018-10-11T07:25:49.468Z,0.00
2018-10-11T07:27:20.997Z,0.00
2018-10-11T07:28:52.569Z,0.00
2018-10-11T07:30:24.145Z,0.00
2018-10-11T07:31:55.917Z,0.00
2018-10-11T07:33:27.288Z,0.00
2018-10-11T07:36:30.435Z,0.00
2018-10-11T07:38:02.009Z,0.00
2018-10-11T07:39:33.581Z,0.00
2018-10-11T07:41:05.231Z,0.00
2018-10-11T07:42:36.725Z,0.00
2018-10-11T07:44:08.299Z,0.00
2018-10-11T07:45:39.873Z,0.00
2018-10-11T07:47:11.533Z,0.00
2018-10-11T07:48:43.019Z,0.00
2018-10-11T07:50:14.744Z,0.00
2018-10-11T07:51:46.164Z,0.00
2018-10-11T07:53:17.737Z,0.00
2018-10-11T07:54:49.312Z,0.00
2018-10-11T07:56:20.884Z,0.00
2018-10-11T07:57:52.459Z,0.00
2018-10-11T07:59:24.030Z,0.00
2018-10-11T08:00:55.603Z,0.00
2018-10-11T08:02:27.279Z,0.00
2018-10-11T08:03:58.748Z,0.00
2018-10-11T08:05:30.321Z,0.00
2018-10-11T08:07:01.957Z,0.00
2018-10-11T08:08:33.646Z,0.00
2018-10-11T08:10:05.041Z,0.00
2018-10-11T08:11:36.701Z,0.00
2018-10-11T08:13:08.189Z,0.00
2018-10-11T08:14:40.061Z,0.00
2018-10-11T08:16:11.391Z,0.00
2018-10-11T08:17:43.249Z,0.00
2018-10-11T08:19:14.843Z,0.00
2018-10-11T08:20:46.052Z,0.00
2018-10-11T08:22:17.625Z,0.00
2018-10-11T08:23:49.198Z,0.00
2018-10-11T08:25:21.072Z,0.00
2018-10-11T08:26:52.757Z,0.00
2018-10-11T08:28:23.917Z,0.00
2018-10-11T08:29:55.490Z,0.00
2018-10-11T08:31:27.087Z,0.00
2018-10-11T08:32:58.801Z,0.00
2018-10-11T08:34:30.208Z,0.00
2018-10-11T08:36:01.781Z,0.00
2018-10-11T08:37:33.370Z,0.00
2018-10-11T08:40:36.519Z,5.63
2018-10-11T08:42:08.073Z,5.63
2018-10-11T08:43:39.768Z,5.63
2018-10-11T08:46:42.897Z,11.25
2018-10-11T08:48:14.411Z,11.25
2018-10-11T08:49:46.141Z,11.25
2018-10-11T08:51:17.514Z,11.25
2018-10-11T08:52:49.087Z,16.88
2018-10-11T08:54:20.656Z,16.88
2018-10-11T08:55:55.310Z,28.13
2018-10-11T08:57:23.806Z,39.38
2018-10-11T08:58:55.376Z,33.75
2018-10-11T09:00:27.715Z,45.00
2018-10-11T09:01:58.562Z,56.25
2018-10-11T09:03:30.547Z,61.88
2018-10-11T09:05:02.731Z,56.25
2018-10-11T09:06:33.314Z,61.88
2018-10-11T09:08:04.813Z,61.88
2018-10-11T09:09:36.765Z,45.00
2018-10-11T09:11:08.555Z,50.63
2018-10-11T09:15:42.687Z,84.38
2018-10-11T09:17:14.446Z,78.75
2018-10-11T09:18:46.071Z,78.75
2018-10-11T09:21:49.195Z,101.25
2018-10-11T09:23:20.716Z,101.25
2018-10-11T09:24:52.215Z,95.63
2018-10-11T09:26:23.715Z,90.00
2018-10-11T09:27:55.410Z,84.38
2018-10-11T09:30:58.545Z,84.38
2018-10-11T09:32:29.990Z,61.88
2018-10-11T09:34:01.594Z,61.88
2018-10-11T09:35:33.272Z,67.50
2018-10-11T09:37:05.006Z,61.88
2018-10-11T09:38:36.301Z,78.75
2018-10-11T09:40:10.467Z,67.50
2018-10-11T09:41:44.402Z,73.13
2018-10-11T09:46:15.052Z,73.13
2018-10-11T09:47:45.803Z,78.75
2018-10-11T09:49:17.461Z,90.00
2018-10-11T09:50:48.914Z,106.88
2018-10-11T09:52:20.672Z,101.25
2018-10-11T09:53:52.068Z,112.50
2018-10-11T09:55:24.079Z,112.50
2018-10-11T09:56:55.248Z,106.88
2018-10-11T09:58:27.912Z,118.13
2018-10-11T09:59:58.495Z,112.50
2018-10-11T10:01:29.944Z,118.13
2018-10-11T10:04:33.309Z,101.25
2018-10-11T10:06:05.054Z,106.88
2018-10-11T10:09:07.791Z,101.25
2018-10-11T10:10:39.353Z,112.50
2018-10-11T10:12:10.910Z,112.50
2018-10-11T10:13:42.655Z,106.88
2018-10-11T10:15:14.024Z,118.13
2018-10-11T10:16:46.008Z,140.63
2018-10-11T10:18:17.427Z,135.00
2018-10-11T10:19:49.085Z,135.00
2018-10-11T10:21:20.658Z,219.38
2018-10-11T10:22:52.070Z,225.00
2018-10-11T10:24:23.511Z,219.38
2018-10-11T10:25:55.240Z,185.63
2018-10-11T10:27:26.860Z,230.63
2018-10-11T10:28:58.389Z,225.00
2018-10-11T10:32:01.691Z,247.50
2018-10-11T10:33:33.178Z,264.38
2018-10-11T10:35:04.575Z,270.00
2018-10-11T10:36:36.108Z,264.38
2018-10-11T10:38:07.727Z,225.00
2018-10-11T10:39:39.398Z,208.13
2018-10-11T10:41:10.977Z,275.63
2018-10-11T10:42:42.703Z,286.88
2018-10-11T10:44:13.985Z,281.25
2018-10-11T10:45:45.531Z,292.50
2018-10-11T10:47:17.485Z,303.75
2018-10-11T10:48:48.981Z,253.13
2018-10-11T10:51:51.818Z,241.88
2018-10-11T10:53:24.163Z,320.63
2018-10-11T10:54:55.447Z,292.50
2018-10-11T10:56:26.704Z,298.13
2018-10-11T10:57:58.136Z,360.00
2018-10-11T10:59:29.964Z,388.13
2018-10-11T11:01:02.196Z,399.38
2018-10-11T11:02:32.813Z,382.50
2018-10-11T11:04:04.756Z,393.75
2018-10-11T11:05:36.802Z,416.25
2018-10-11T11:07:08.327Z,433.13
2018-10-11T11:08:41.189Z,393.75
2018-10-11T11:10:11.548Z,320.63
2018-10-11T11:11:42.346Z,309.38
2018-10-11T11:13:13.991Z,286.88
2018-10-11T11:14:46.501Z,331.88
2018-10-11T11:16:18.807Z,399.38
2018-10-11T11:17:49.895Z,517.50
2018-10-11T11:19:20.588Z,601.88
2018-10-11T11:20:52.076Z,551.25
2018-10-11T11:22:24.160Z,523.13
2018-10-11T11:23:55.837Z,534.38
2018-10-11T11:25:26.464Z,506.25
2018-10-11T11:26:58.513Z,438.75
2018-10-11T11:30:02.943Z,461.25
2018-10-11T11:31:33.543Z,388.13
2018-10-11T11:33:04.346Z,331.88
2018-10-11T11:34:36.161Z,292.50
2018-10-11T11:36:08.180Z,275.63
2018-10-11T11:37:39.459Z,247.50
2018-10-11T11:40:42.264Z,196.88
2018-10-11T11:42:14.288Z,298.13
2018-10-11T11:45:17.068Z,511.88
2018-10-11T11:48:20.169Z,405.00
2018-10-11T11:49:51.630Z,393.75
2018-10-11T11:51:23.496Z,388.13
2018-10-11T11:52:54.807Z,382.50
2018-10-11T11:54:26.491Z,438.75
2018-10-11T11:55:58.273Z,348.75
2018-10-11T11:57:29.511Z,416.25
2018-10-11T12:00:32.780Z,658.13
2018-10-11T12:02:04.591Z,528.75
2018-10-11T12:03:36.329Z,573.75
2018-10-11T12:05:08.371Z,579.38
2018-10-11T12:06:39.380Z,590.63
2018-10-11T12:08:10.553Z,646.88
2018-10-11T12:09:42.081Z,585.00
2018-10-11T12:11:13.848Z,658.13
2018-10-11T12:12:45.419Z,596.25
2018-10-11T12:14:17.049Z,601.88
2018-10-11T12:15:49.521Z,421.88
2018-10-11T12:17:20.291Z,343.13
2018-10-11T12:18:52.358Z,399.38
2018-10-11T12:20:23.388Z,450.00
2018-10-11T12:21:56.528Z,568.13
2018-10-11T12:23:27.461Z,770.63
2018-10-11T12:24:57.900Z,883.13
2018-10-11T12:26:29.972Z,900.00
2018-10-11T12:28:00.981Z,961.88
2018-10-11T12:29:32.577Z,877.50
2018-10-11T12:31:04.544Z,838.13
2018-10-11T12:32:35.774Z,742.50
2018-10-11T12:35:38.871Z,990.00
2018-10-11T12:37:10.534Z,905.63
2018-10-11T12:38:42.401Z,967.50
2018-10-11T12:40:13.619Z,883.13
2018-10-11T12:41:45.177Z,691.88
2018-10-11T12:43:17.100Z,855.00
2018-10-11T12:44:49.229Z,725.63
2018-10-11T12:47:52.094Z,894.38
2018-10-11T12:50:54.919Z,961.88
2018-10-11T12:53:57.771Z,748.13
2018-10-11T12:55:29.558Z,708.75
2018-10-11T12:57:02.264Z,585.00
2018-10-11T13:00:04.078Z,635.63
2018-10-11T13:01:35.657Z,753.75
2018-10-11T13:03:07.264Z,613.13
2018-10-11T13:07:41.956Z,995.63
2018-10-11T13:09:13.931Z,1023.75
2018-10-11T13:10:45.111Z,928.13
2018-10-11T13:12:17.211Z,787.50
2018-10-11T13:15:19.836Z,776.25
2018-10-11T13:16:51.411Z,928.13
2018-10-11T13:18:23.189Z,945.00
2018-10-11T13:19:54.562Z,871.88
2018-10-11T13:21:26.455Z,866.25
2018-10-11T13:22:58.112Z,776.25
2018-10-11T13:26:04.098Z,596.25
2018-10-11T13:29:04.145Z,720.00
2018-10-11T13:30:35.896Z,736.88
2018-10-11T13:32:07.171Z,855.00
2018-10-11T13:33:38.782Z,1170.00
2018-10-11T13:35:10.542Z,731.25
2018-10-11T13:36:41.897Z,579.38
2018-10-11T13:38:13.471Z,793.13
2018-10-11T13:42:48.198Z,810.00
2018-10-11T13:44:20.354Z,748.13
2018-10-11T13:47:23.287Z,1063.13
2018-10-11T13:48:54.978Z,1063.13
2018-10-11T13:50:26.493Z,866.25
2018-10-11T13:51:58.456Z,551.25
2018-10-11T13:53:30.253Z,697.50
2018-10-11T13:55:08.121Z,1018.13
2018-10-11T13:56:32.529Z,1428.75
2018-10-11T13:58:03.985Z,1670.63
2018-10-11T13:59:35.858Z,1546.88
2018-10-11T14:01:07.403Z,1636.88
2018-10-11T14:02:39.640Z,1243.13
2018-10-11T14:04:11.195Z,1276.88
2018-10-11T14:05:42.487Z,1423.13
2018-10-11T14:07:14.046Z,1164.38
2018-10-11T14:08:45.293Z,1029.38
2018-10-11T14:11:49.009Z,1271.25
2018-10-11T14:14:52.105Z,1203.75
2018-10-11T14:16:22.906Z,1440.00
2018-10-11T14:19:26.071Z,1327.50
2018-10-11T14:20:57.843Z,1366.88
2018-10-11T14:22:29.370Z,1344.38
2018-10-11T14:24:01.230Z,1440.00
2018-10-11T14:25:32.617Z,1085.63
2018-10-11T14:27:04.251Z,1108.13
2018-10-11T14:28:36.143Z,984.38
2018-10-11T14:30:07.959Z,1102.50
2018-10-11T14:31:38.705Z,1237.50
2018-10-11T14:33:10.262Z,961.88
2018-10-11T14:34:42.490Z,1018.13
2018-10-11T14:36:13.573Z,821.25
2018-10-11T14:37:45.371Z,810.00
2018-10-11T14:40:50.895Z,545.63
2018-10-11T14:42:20.265Z,613.13
2018-10-11T14:43:51.577Z,585.00
2018-10-11T14:45:23.455Z,483.75
2018-10-11T14:46:55.133Z,545.63
2018-10-11T14:48:26.270Z,1125.00
2018-10-11T14:51:29.535Z,798.75
2018-10-11T14:53:01.267Z,770.63
2018-10-11T14:54:33.142Z,843.75
2018-10-11T14:56:05.490Z,855.00
2018-10-11T14:57:36.875Z,849.38
2018-10-11T14:59:08.333Z,1029.38
2018-10-11T15:00:38.777Z,911.25
2018-10-11T15:02:10.500Z,1040.63
2018-10-11T15:03:43.192Z,1310.63
2018-10-11T15:05:13.450Z,1141.88
2018-10-11T15:06:45.080Z,1046.25
2018-10-11T15:09:48.235Z,1186.88
2018-10-11T15:11:20.005Z,1243.13
2018-10-11T15:12:52.804Z,1080.00
2018-10-11T15:14:23.141Z,1170.00
2018-10-11T15:15:55.337Z,1006.88
2018-10-11T15:17:26.119Z,1147.50
2018-10-11T15:18:57.490Z,1119.38
2018-10-11T15:20:29.276Z,1012.50
2018-10-11T15:22:00.747Z,956.25
2018-10-11T15:23:32.413Z,1209.38
2018-10-11T15:25:03.874Z,933.75
2018-10-11T15:26:35.571Z,810.00
2018-10-11T15:28:07.518Z,810.00
2018-10-11T15:29:39.729Z,973.13
2018-10-11T15:31:10.241Z,798.75
2018-10-11T15:32:41.900Z,978.75
2018-10-11T15:34:13.722Z,1001.25
2018-10-11T15:35:45.139Z,945.00
2018-10-11T15:37:16.499Z,950.63
2018-10-11T15:38:48.258Z,883.13
2018-10-11T15:40:19.677Z,787.50
2018-10-11T15:41:51.559Z,585.00
2018-10-11T15:43:23.283Z,703.13
2018-10-11T15:44:54.734Z,607.50
2018-10-11T15:46:26.919Z,596.25
2018-10-11T15:47:57.490Z,967.50
2018-10-11T15:49:29.445Z,1040.63
2018-10-11T15:51:01.560Z,1074.38
2018-10-11T15:52:33.496Z,905.63
2018-10-11T15:54:04.413Z,714.38
2018-10-11T15:55:36.397Z,860.63
2018-10-11T15:57:07.869Z,821.25
2018-10-11T15:58:39.191Z,652.50
2018-10-11T16:00:10.874Z,759.38
2018-10-11T16:01:42.487Z,911.25
2018-10-11T16:03:14.677Z,1074.38
2018-10-11T16:04:46.507Z,742.50
2018-10-11T16:06:17.611Z,826.88
2018-10-11T16:07:48.513Z,832.50
2018-10-11T16:09:20.948Z,742.50
2018-10-11T16:10:51.107Z,601.88
2018-10-11T16:12:22.980Z,635.63
2018-10-11T16:13:56.052Z,455.63
2018-10-11T16:15:27.937Z,416.25
2018-10-11T16:16:58.238Z,742.50
2018-10-11T16:18:30.044Z,933.75
2018-10-11T16:20:01.103Z,675.00
2018-10-11T16:21:32.772Z,596.25
2018-10-11T16:23:04.188Z,686.25
2018-10-11T16:24:36.756Z,742.50
2018-10-11T16:26:09.050Z,658.13
2018-10-11T16:27:39.272Z,742.50
2018-10-11T16:29:14.190Z,511.88
2018-10-11T16:30:42.775Z,540.00
2018-10-11T16:32:13.775Z,618.75
2018-10-11T16:33:45.249Z,568.13
2018-10-11T16:35:17.074Z,742.50
2018-10-11T16:36:49.548Z,669.38
2018-10-11T16:38:20.743Z,725.63
2018-10-11T16:39:52.688Z,585.00
2018-10-11T16:41:24.058Z,703.13
2018-10-11T16:42:56.080Z,742.50
2018-10-11T16:44:26.030Z,855.00
2018-10-11T16:45:58.899Z,1023.75
2018-10-11T16:47:31.798Z,1006.88
2018-10-11T16:49:03.146Z,928.13
2018-10-11T16:50:33.190Z,956.25
2018-10-11T16:52:05.916Z,753.75
2018-10-11T16:53:36.185Z,686.25
2018-10-11T16:55:07.996Z,843.75
2018-10-11T16:56:39.041Z,1006.88
2018-10-11T16:58:10.223Z,798.75
2018-10-11T16:59:43.426Z,669.38
2018-10-11T17:01:13.938Z,635.63
2018-10-11T17:02:45.950Z,528.75
2018-10-11T17:04:17.949Z,618.75
2018-10-11T17:05:52.184Z,708.75
2018-10-11T17:07:21.492Z,590.63
2018-10-11T17:08:53.716Z,556.88
2018-10-11T17:10:23.035Z,500.63
2018-10-11T17:11:55.415Z,618.75
2018-10-11T17:13:26.307Z,675.00
2018-10-11T17:14:58.875Z,742.50
2018-10-11T17:16:29.392Z,720.00
2018-10-11T17:18:02.276Z,871.88
2018-10-11T17:19:32.773Z,866.25
2018-10-11T17:21:03.857Z,658.13
2018-10-11T17:29:33.551Z,1119.38
2018-10-11T17:32:37.097Z,798.75
2018-10-11T17:34:08.369Z,860.63
2018-10-11T17:37:11.279Z,483.75
2018-10-11T17:38:42.795Z,590.63
2018-10-11T17:40:14.372Z,472.50
2018-10-11T17:43:18.455Z,618.75
2018-10-11T17:44:49.097Z,551.25
2018-10-11T17:46:20.877Z,736.88
2018-10-11T17:47:52.250Z,787.50
2018-10-11T17:49:23.832Z,641.25
2018-10-11T17:50:55.538Z,798.75
2018-10-11T17:52:27.213Z,950.63
2018-10-11T17:53:59.683Z,821.25
2018-10-11T17:55:30.123Z,675.00
2018-10-11T17:57:01.699Z,618.75
2018-10-11T17:58:33.274Z,686.25
2018-10-11T18:00:05.240Z,528.75
2018-10-11T18:01:36.425Z,725.63
2018-10-11T18:04:39.658Z,787.50
2018-10-11T18:06:11.151Z,461.25
2018-10-11T18:09:14.503Z,562.50
2018-10-11T18:10:46.413Z,551.25
2018-10-11T18:12:17.470Z,500.63
2018-10-11T18:13:49.331Z,579.38
2018-10-11T18:15:20.615Z,466.88
2018-10-11T18:19:55.327Z,416.25
2018-10-11T18:21:27.849Z,489.38
2018-10-11T18:22:58.475Z,652.50
2018-10-11T18:24:30.063Z,601.88
2018-10-11T18:26:01.924Z,348.75
2018-10-11T18:27:33.499Z,343.13
2018-10-11T18:29:04.906Z,281.25
2018-10-11T18:30:36.346Z,376.88
2018-10-11T18:32:08.459Z,534.38
2018-10-11T18:33:39.491Z,427.50
2018-10-11T18:35:11.573Z,472.50
2018-10-11T18:38:14.751Z,365.63
2018-10-11T18:39:45.787Z,410.63
2018-10-11T18:42:49.052Z,303.75
2018-10-11T18:44:20.767Z,264.38
2018-10-11T18:45:52.477Z,315.00
2018-10-11T18:47:24.045Z,354.38
2018-10-11T18:50:27.104Z,247.50
2018-10-11T18:53:29.953Z,270.00
2018-10-11T18:55:01.792Z,298.13
2018-10-11T18:56:33.355Z,225.00
2018-10-11T18:58:04.753Z,236.25
2018-10-11T18:59:36.290Z,219.38
2018-10-11T19:01:07.816Z,219.38
2018-10-11T19:02:39.491Z,213.75
2018-10-11T19:04:11.167Z,236.25
2018-10-11T19:05:42.881Z,281.25
2018-10-11T19:08:45.682Z,208.13
2018-10-11T19:11:48.905Z,185.63
2018-10-11T19:14:51.973Z,236.25
2018-10-11T19:16:23.546Z,241.88
2018-10-11T19:17:55.625Z,326.25
2018-10-11T19:19:26.704Z,303.75
2018-10-11T19:25:33.085Z,258.75
2018-10-11T19:27:04.555Z,281.25
2018-10-11T19:28:36.707Z,230.63
2018-10-11T19:31:39.607Z,236.25
2018-10-11T19:34:42.724Z,225.00
2018-10-11T19:36:13.994Z,208.13
2018-10-11T19:37:45.615Z,174.38
2018-10-11T19:40:48.857Z,196.88
2018-10-11T19:42:20.492Z,146.25
2018-10-11T19:43:52.159Z,140.63
2018-10-11T19:45:23.428Z,101.25
2018-10-11T19:46:55.002Z,106.88
2018-10-11T19:48:26.783Z,106.88
2018-10-11T19:49:59.311Z,118.13
2018-10-11T19:51:30.624Z,140.63
2018-10-11T19:53:01.617Z,129.38
2018-10-11T19:54:32.864Z,157.50
2018-10-11T19:56:04.493Z,157.50
2018-10-11T19:57:36.144Z,123.75
2018-10-11T19:59:07.782Z,129.38
2018-10-11T20:00:39.154Z,140.63
2018-10-11T20:02:10.826Z,146.25
2018-10-11T20:03:42.600Z,191.25
2018-10-11T20:05:13.927Z,225.00
2018-10-11T20:06:45.442Z,196.88
2018-10-11T20:08:17.579Z,236.25
2018-10-11T20:09:49.115Z,163.13
2018-10-11T20:12:52.035Z,135.00
2018-10-11T20:14:23.831Z,118.13
2018-10-11T20:15:54.875Z,151.88
2018-10-11T20:18:58.913Z,118.13
2018-10-11T20:20:29.691Z,118.13
2018-10-11T20:22:01.468Z,106.88
2018-10-11T20:23:32.735Z,101.25
2018-10-11T20:25:04.307Z,90.00
2018-10-11T20:26:36.082Z,90.00
2018-10-11T20:28:07.452Z,101.25
2018-10-11T20:29:39.226Z,95.63
2018-10-11T20:31:10.599Z,90.00
2018-10-11T20:32:42.276Z,67.50
2018-10-11T20:35:45.919Z,67.50
2018-10-11T20:37:17.087Z,56.25
2018-10-11T20:38:48.557Z,56.25
2018-10-11T20:41:53.024Z,50.63
2018-10-11T20:43:23.244Z,39.38
2018-10-11T20:46:26.321Z,39.38
2018-10-11T20:47:57.889Z,28.13
2018-10-11T20:49:29.462Z,33.75
2018-10-11T20:52:32.605Z,28.13
2018-10-11T20:54:04.176Z,22.50
2018-10-11T20:55:35.748Z,28.13
2018-10-11T20:57:07.322Z,22.50
2018-10-11T20:58:39.195Z,16.88
2018-10-11T21:00:10.463Z,16.88
2018-10-11T21:01:42.034Z,16.88
2018-10-11T21:03:14.035Z,11.25
2018-10-11T21:04:45.278Z,5.63
2018-10-11T21:06:16.749Z,5.63
2018-10-11T21:09:19.905Z,0.00
2018-10-11T21:10:51.562Z,0.00
2018-10-11T21:12:23.035Z,0.00
2018-10-11T21:15:26.177Z,0.00
2018-10-11T21:16:58.202Z,0.00
2018-10-11T21:18:29.320Z,0.00
2018-10-11T21:20:00.943Z,0.00
2018-10-11T21:21:32.462Z,0.00
2018-10-11T21:23:04.563Z,0.00
2018-10-11T21:24:35.807Z,0.00
2018-10-11T21:26:07.207Z,0.00
2018-10-11T21:27:39.046Z,0.00
2018-10-11T21:29:10.541Z,0.00
2018-10-11T21:30:41.891Z,0.00
2018-10-11T21:32:13.461Z,0.00
2018-10-11T21:33:45.344Z,0.00
2018-10-11T21:35:16.704Z,0.00
2018-10-11T21:36:48.176Z,0.00